Portada
METAR-TAF:

METAR-TAF

Aeroports :

Palembang, Indonèsia

latitud: 02-54S, longitud: 104-42E, altitud: 10 m

Observació

L'informe es va fer fa 4 hores i 0 minuts, a les 16:30 UTC
Vent 5 kt del Est/Sud-Est
Temperatura 26°C
Humitat 79%
Pressió 1010 hPa
Visibilitat: 5000 m
fum

METAR: WIPP 161630Z 11005KT 5000 FU NSC 26/22 Q1010

Hora: 03:30 (20:30 UTC)

Pronòstic

L'informe es va fer fa 3 hores i 30 minuts, a les 17:00 UTC
Pronòstic vàlid del 16 a les 18 UTC al 17 a les 18 UTC
Vent 8 kt del Est/Sud-Est
Visibilitat: 5000 m
Escasses núvols a una alçada de 1000 ft
fum
Temporalment
l' 16 a les 20 UTC al 16 a les 24 UTC
Visibilitat: 1500 m
Evolucionant progressivament
l' 17 a les 00 UTC al 17 a les 02 UTC
Visibilitat: 7000 m
Temporalment
l' 17 a les 13 UTC al 17 a les 17 UTC
Visibilitat: 4000 m
fum

TAF: WIPP 161700Z 1618/1718 12008KT 5000 FU FEW010 TEMPO 1620/1624 1500 BECMG 1700/1702 7000 NSW TEMPO 1713/1717 4000 FU

Observacions i pronòstics meteorològics de més de 4000 aeroports (METAR i TAF).

Les estacions disponibles són els punts grocs i vermells al mapa.

Posi el ratolí al punt desitjat per veure el nom de l'estació.

Feu clic per veure les observacions i els pronòstics meteorològics.

Per canviar el mapa: feu clic els botons verds amb una creu de color negre per apropar; al botó verd amb un guió per allunyar la imatge; o en les fletxes verdes per a mapes adjacents.


METAR-TAF: